sensor_id;sensor_type;location;lat;lon;timestamp;P1;durP1;ratioP1;P2;durP2;ratioP2
42742;SDS011;28397;44.552;-0.848;2023-06-19T00:01:45;4.13;;;3.22;;
42742;SDS011;28397;44.552;-0.848;2023-06-19T00:04:11;5.90;;;3.10;;
42742;SDS011;28397;44.552;-0.848;2023-06-19T00:06:36;7.38;;;3.60;;
42742;SDS011;28397;44.552;-0.848;2023-06-19T00:09:02;4.72;;;3.40;;
42742;SDS011;28397;44.552;-0.848;2023-06-19T00:11:28;5.10;;;3.63;;
42742;SDS011;28397;44.552;-0.848;2023-06-19T00:13:54;3.97;;;3.20;;
42742;SDS011;28397;44.552;-0.848;2023-06-19T00:16:20;5.22;;;3.65;;
42742;SDS011;28397;44.552;-0.848;2023-06-19T00:18:46;4.63;;;3.22;;
42742;SDS011;28397;44.552;-0.848;2023-06-19T00:21:12;4.80;;;3.13;;
42742;SDS011;28397;44.552;-0.848;2023-06-19T00:23:37;3.28;;;3.00;;
42742;SDS011;28397;44.552;-0.848;2023-06-19T00:26:03;3.80;;;3.00;;
42742;SDS011;28397;44.552;-0.848;2023-06-19T00:28:30;3.95;;;3.03;;
42742;SDS011;28397;44.552;-0.848;2023-06-19T00:30:56;4.82;;;3.47;;
42742;SDS011;28397;44.552;-0.848;2023-06-19T00:33:21;4.15;;;3.47;;
42742;SDS011;28397;44.552;-0.848;2023-06-19T00:35:49;3.58;;;3.28;;
42742;SDS011;28397;44.552;-0.848;2023-06-19T00:38:15;4.35;;;3.35;;
42742;SDS011;28397;44.552;-0.848;2023-06-19T00:40:41;4.82;;;3.13;;
42742;SDS011;28397;44.552;-0.848;2023-06-19T00:43:07;3.35;;;3.00;;
42742;SDS011;28397;44.552;-0.848;2023-06-19T00:45:32;4.43;;;2.92;;
42742;SDS011;28397;44.552;-0.848;2023-06-19T00:47:58;4.95;;;3.33;;
42742;SDS011;28397;44.552;-0.848;2023-06-19T00:50:24;5.32;;;3.17;;
42742;SDS011;28397;44.552;-0.848;2023-06-19T00:52:52;4.72;;;3.50;;
42742;SDS011;28397;44.552;-0.848;2023-06-19T00:55:19;3.47;;;3.17;;
42742;SDS011;28397;44.552;-0.848;2023-06-19T00:57:46;6.03;;;3.50;;
42742;SDS011;28397;44.552;-0.848;2023-06-19T01:00:11;3.58;;;3.22;;
42742;SDS011;28397;44.552;-0.848;2023-06-19T01:02:38;4.97;;;3.45;;
42742;SDS011;28397;44.552;-0.848;2023-06-19T01:05:04;5.28;;;3.55;;
42742;SDS011;28397;44.552;-0.848;2023-06-19T01:10:31;3.88;;;3.22;;
42742;SDS011;28397;44.552;-0.848;2023-06-19T01:13:10;3.70;;;3.15;;
42742;SDS011;28397;44.552;-0.848;2023-06-19T01:15:42;4.82;;;3.63;;
42742;SDS011;28397;44.552;-0.848;2023-06-19T01:18:07;4.88;;;3.40;;
42742;SDS011;28397;44.552;-0.848;2023-06-19T01:20:36;3.97;;;3.58;;
42742;SDS011;28397;44.552;-0.848;2023-06-19T01:23:09;4.90;;;3.75;;
42742;SDS011;28397;44.552;-0.848;2023-06-19T01:25:35;5.38;;;3.80;;
42742;SDS011;28397;44.552;-0.848;2023-06-19T01:28:05;6.15;;;3.70;;
42742;SDS011;28397;44.552;-0.848;2023-06-19T01:30:34;4.40;;;3.47;;
42742;SDS011;28397;44.552;-0.848;2023-06-19T01:35:51;3.53;;;3.22;;
42742;SDS011;28397;44.552;-0.848;2023-06-19T01:38:17;3.72;;;3.28;;
42742;SDS011;28397;44.552;-0.848;2023-06-19T01:40:46;5.57;;;3.50;;
42742;SDS011;28397;44.552;-0.848;2023-06-19T01:43:13;3.90;;;3.50;;
42742;SDS011;28397;44.552;-0.848;2023-06-19T01:45:40;3.95;;;3.60;;
42742;SDS011;28397;44.552;-0.848;2023-06-19T01:48:07;5.93;;;3.72;;
42742;SDS011;28397;44.552;-0.848;2023-06-19T01:50:33;5.20;;;3.60;;
42742;SDS011;28397;44.552;-0.848;2023-06-19T01:52:58;5.50;;;3.60;;
42742;SDS011;28397;44.552;-0.848;2023-06-19T01:55:24;4.45;;;3.63;;
42742;SDS011;28397;44.552;-0.848;2023-06-19T01:57:50;4.78;;;3.50;;
42742;SDS011;28397;44.552;-0.848;2023-06-19T02:00:16;3.78;;;3.45;;
42742;SDS011;28397;44.552;-0.848;2023-06-19T02:02:42;3.70;;;3.40;;
42742;SDS011;28397;44.552;-0.848;2023-06-19T02:05:08;3.50;;;3.20;;
42742;SDS011;28397;44.552;-0.848;2023-06-19T02:07:34;4.65;;;3.60;;
42742;SDS011;28397;44.552;-0.848;2023-06-19T02:10:00;4.38;;;3.40;;
42742;SDS011;28397;44.552;-0.848;2023-06-19T02:12:25;4.57;;;3.58;;
42742;SDS011;28397;44.552;-0.848;2023-06-19T02:14:51;3.95;;;3.13;;
42742;SDS011;28397;44.552;-0.848;2023-06-19T02:17:16;6.13;;;3.38;;
42742;SDS011;28397;44.552;-0.848;2023-06-19T02:19:42;3.88;;;3.40;;
42742;SDS011;28397;44.552;-0.848;2023-06-19T02:22:08;4.50;;;3.50;;
42742;SDS011;28397;44.552;-0.848;2023-06-19T02:24:33;4.90;;;3.67;;
42742;SDS011;28397;44.552;-0.848;2023-06-19T02:26:59;4.28;;;3.15;;
42742;SDS011;28397;44.552;-0.848;2023-06-19T02:29:27;4.47;;;3.42;;
42742;SDS011;28397;44.552;-0.848;2023-06-19T02:31:54;4.22;;;3.13;;
42742;SDS011;28397;44.552;-0.848;2023-06-19T02:34:20;3.90;;;3.40;;
42742;SDS011;28397;44.552;-0.848;2023-06-19T02:36:49;3.70;;;3.28;;
42742;SDS011;28397;44.552;-0.848;2023-06-19T02:39:15;4.00;;;3.60;;
42742;SDS011;28397;44.552;-0.848;2023-06-19T02:41:41;4.40;;;3.47;;
42742;SDS011;28397;44.552;-0.848;2023-06-19T02:44:10;4.45;;;3.55;;
42742;SDS011;28397;44.552;-0.848;2023-06-19T02:46:39;3.60;;;3.30;;
42742;SDS011;28397;44.552;-0.848;2023-06-19T02:49:05;5.75;;;3.40;;
42742;SDS011;28397;44.552;-0.848;2023-06-19T02:51:31;5.07;;;3.40;;
42742;SDS011;28397;44.552;-0.848;2023-06-19T02:53:56;3.70;;;3.40;;
42742;SDS011;28397;44.552;-0.848;2023-06-19T02:56:22;4.00;;;3.60;;
42742;SDS011;28397;44.552;-0.848;2023-06-19T02:58:49;3.50;;;3.20;;
42742;SDS011;28397;44.552;-0.848;2023-06-19T03:01:14;4.15;;;3.63;;
42742;SDS011;28397;44.552;-0.848;2023-06-19T03:03:40;4.60;;;3.53;;
42742;SDS011;28397;44.552;-0.848;2023-06-19T03:06:06;4.10;;;3.38;;
42742;SDS011;28397;44.552;-0.848;2023-06-19T03:08:33;3.60;;;3.30;;
42742;SDS011;28397;44.552;-0.848;2023-06-19T03:10:59;3.67;;;3.38;;
42742;SDS011;28397;44.552;-0.848;2023-06-19T03:13:25;3.70;;;3.40;;
42742;SDS011;28397;44.552;-0.848;2023-06-19T03:15:50;4.53;;;3.38;;
42742;SDS011;28397;44.552;-0.848;2023-06-19T03:18:16;3.97;;;3.38;;
42742;SDS011;28397;44.552;-0.848;2023-06-19T03:20:42;3.78;;;3.47;;
42742;SDS011;28397;44.552;-0.848;2023-06-19T03:23:07;4.13;;;3.63;;
42742;SDS011;28397;44.552;-0.848;2023-06-19T03:25:33;4.00;;;3.60;;
42742;SDS011;28397;44.552;-0.848;2023-06-19T03:28:00;4.43;;;3.72;;
42742;SDS011;28397;44.552;-0.848;2023-06-19T03:30:27;3.70;;;3.40;;
42742;SDS011;28397;44.552;-0.848;2023-06-19T03:32:53;5.05;;;3.47;;
42742;SDS011;28397;44.552;-0.848;2023-06-19T03:35:19;4.72;;;3.40;;
42742;SDS011;28397;44.552;-0.848;2023-06-19T03:37:44;5.53;;;3.70;;
42742;SDS011;28397;44.552;-0.848;2023-06-19T03:40:10;4.15;;;3.78;;
42742;SDS011;28397;44.552;-0.848;2023-06-19T03:42:39;4.00;;;3.60;;
42742;SDS011;28397;44.552;-0.848;2023-06-19T03:45:05;5.25;;;4.00;;
42742;SDS011;28397;44.552;-0.848;2023-06-19T03:47:31;4.82;;;3.80;;
42742;SDS011;28397;44.552;-0.848;2023-06-19T03:49:57;4.05;;;3.65;;
42742;SDS011;28397;44.552;-0.848;2023-06-19T03:52:22;4.47;;;3.60;;
42742;SDS011;28397;44.552;-0.848;2023-06-19T03:54:48;4.13;;;3.83;;
42742;SDS011;28397;44.552;-0.848;2023-06-19T03:57:14;4.82;;;3.60;;
42742;SDS011;28397;44.552;-0.848;2023-06-19T03:59:40;5.00;;;4.03;;
42742;SDS011;28397;44.552;-0.848;2023-06-19T04:02:05;4.18;;;3.85;;
42742;SDS011;28397;44.552;-0.848;2023-06-19T04:04:31;4.15;;;3.70;;
42742;SDS011;28397;44.552;-0.848;2023-06-19T04:06:57;4.07;;;3.78;;
42742;SDS011;28397;44.552;-0.848;2023-06-19T04:09:24;5.15;;;3.78;;
42742;SDS011;28397;44.552;-0.848;2023-06-19T04:11:50;4.03;;;3.63;;
42742;SDS011;28397;44.552;-0.848;2023-06-19T04:14:15;4.35;;;3.88;;
42742;SDS011;28397;44.552;-0.848;2023-06-19T04:16:41;5.50;;;3.90;;
42742;SDS011;28397;44.552;-0.848;2023-06-19T04:19:07;4.68;;;3.72;;
42742;SDS011;28397;44.552;-0.848;2023-06-19T04:21:32;4.43;;;4.03;;
42742;SDS011;28397;44.552;-0.848;2023-06-19T04:23:58;4.30;;;3.90;;
42742;SDS011;28397;44.552;-0.848;2023-06-19T04:26:24;4.07;;;3.78;;
42742;SDS011;28397;44.552;-0.848;2023-06-19T04:28:50;4.53;;;3.80;;
42742;SDS011;28397;44.552;-0.848;2023-06-19T04:31:15;5.07;;;4.00;;
42742;SDS011;28397;44.552;-0.848;2023-06-19T04:33:44;4.47;;;3.80;;
42742;SDS011;28397;44.552;-0.848;2023-06-19T04:36:10;4.95;;;4.40;;
42742;SDS011;28397;44.552;-0.848;2023-06-19T04:38:36;4.40;;;4.00;;
42742;SDS011;28397;44.552;-0.848;2023-06-19T04:41:01;4.20;;;3.80;;
42742;SDS011;28397;44.552;-0.848;2023-06-19T04:43:27;4.25;;;3.85;;
42742;SDS011;28397;44.552;-0.848;2023-06-19T04:45:53;3.97;;;3.60;;
42742;SDS011;28397;44.552;-0.848;2023-06-19T04:48:19;4.25;;;3.80;;
42742;SDS011;28397;44.552;-0.848;2023-06-19T04:50:44;4.13;;;3.78;;
42742;SDS011;28397;44.552;-0.848;2023-06-19T04:53:10;4.60;;;3.95;;
42742;SDS011;28397;44.552;-0.848;2023-06-19T04:55:36;4.50;;;3.88;;
42742;SDS011;28397;44.552;-0.848;2023-06-19T04:58:02;4.75;;;4.22;;
42742;SDS011;28397;44.552;-0.848;2023-06-19T05:00:28;5.40;;;3.65;;
42742;SDS011;28397;44.552;-0.848;2023-06-19T05:02:54;4.82;;;4.40;;
42742;SDS011;28397;44.552;-0.848;2023-06-19T05:05:24;6.72;;;4.10;;
42742;SDS011;28397;44.552;-0.848;2023-06-19T05:07:50;4.63;;;3.78;;
42742;SDS011;28397;44.552;-0.848;2023-06-19T05:10:16;4.70;;;3.90;;
42742;SDS011;28397;44.552;-0.848;2023-06-19T05:12:41;4.25;;;3.80;;
42742;SDS011;28397;44.552;-0.848;2023-06-19T05:15:07;4.40;;;3.80;;
42742;SDS011;28397;44.552;-0.848;2023-06-19T05:17:33;4.28;;;3.88;;
42742;SDS011;28397;44.552;-0.848;2023-06-19T05:19:59;4.88;;;4.22;;
42742;SDS011;28397;44.552;-0.848;2023-06-19T05:22:25;4.53;;;4.13;;
42742;SDS011;28397;44.552;-0.848;2023-06-19T05:24:51;4.65;;;4.00;;
42742;SDS011;28397;44.552;-0.848;2023-06-19T05:27:17;4.53;;;4.13;;
42742;SDS011;28397;44.552;-0.848;2023-06-19T05:29:43;6.03;;;4.07;;
42742;SDS011;28397;44.552;-0.848;2023-06-19T05:32:08;5.50;;;4.93;;
42742;SDS011;28397;44.552;-0.848;2023-06-19T05:34:34;5.28;;;4.55;;
42742;SDS011;28397;44.552;-0.848;2023-06-19T05:37:00;5.97;;;5.20;;
42742;SDS011;28397;44.552;-0.848;2023-06-19T05:39:28;7.53;;;5.50;;
42742;SDS011;28397;44.552;-0.848;2023-06-19T05:41:54;6.38;;;5.70;;
42742;SDS011;28397;44.552;-0.848;2023-06-19T05:44:20;6.25;;;5.65;;
42742;SDS011;28397;44.552;-0.848;2023-06-19T05:46:45;5.95;;;5.35;;
42742;SDS011;28397;44.552;-0.848;2023-06-19T05:49:11;8.20;;;5.20;;
42742;SDS011;28397;44.552;-0.848;2023-06-19T05:51:37;5.68;;;5.03;;
42742;SDS011;28397;44.552;-0.848;2023-06-19T05:54:02;6.03;;;4.65;;
42742;SDS011;28397;44.552;-0.848;2023-06-19T05:56:32;5.28;;;4.57;;
42742;SDS011;28397;44.552;-0.848;2023-06-19T05:58:58;4.45;;;4.05;;
42742;SDS011;28397;44.552;-0.848;2023-06-19T06:01:25;4.55;;;3.85;;
42742;SDS011;28397;44.552;-0.848;2023-06-19T06:03:53;4.88;;;3.70;;
42742;SDS011;28397;44.552;-0.848;2023-06-19T06:06:19;5.38;;;4.00;;
42742;SDS011;28397;44.552;-0.848;2023-06-19T06:08:45;4.40;;;3.92;;
42742;SDS011;28397;44.552;-0.848;2023-06-19T06:11:10;4.85;;;4.15;;
42742;SDS011;28397;44.552;-0.848;2023-06-19T06:13:36;5.18;;;4.07;;
42742;SDS011;28397;44.552;-0.848;2023-06-19T06:16:02;4.65;;;4.10;;
42742;SDS011;28397;44.552;-0.848;2023-06-19T06:18:28;4.57;;;4.18;;
42742;SDS011;28397;44.552;-0.848;2023-06-19T06:20:53;5.55;;;4.28;;
42742;SDS011;28397;44.552;-0.848;2023-06-19T06:23:19;6.55;;;4.25;;
42742;SDS011;28397;44.552;-0.848;2023-06-19T06:25:44;5.00;;;4.38;;
42742;SDS011;28397;44.552;-0.848;2023-06-19T06:28:11;5.70;;;4.82;;
42742;SDS011;28397;44.552;-0.848;2023-06-19T06:30:37;5.13;;;4.55;;
42742;SDS011;28397;44.552;-0.848;2023-06-19T06:33:03;6.20;;;5.30;;
42742;SDS011;28397;44.552;-0.848;2023-06-19T06:35:29;5.40;;;5.00;;
42742;SDS011;28397;44.552;-0.848;2023-06-19T06:37:55;5.93;;;5.43;;
42742;SDS011;28397;44.552;-0.848;2023-06-19T06:40:21;5.75;;;5.18;;
42742;SDS011;28397;44.552;-0.848;2023-06-19T06:42:46;5.90;;;5.40;;
42742;SDS011;28397;44.552;-0.848;2023-06-19T06:45:12;6.53;;;5.93;;
42742;SDS011;28397;44.552;-0.848;2023-06-19T06:47:38;8.35;;;6.47;;
42742;SDS011;28397;44.552;-0.848;2023-06-19T06:50:05;8.00;;;6.53;;
42742;SDS011;28397;44.552;-0.848;2023-06-19T06:52:32;8.20;;;6.53;;
42742;SDS011;28397;44.552;-0.848;2023-06-19T06:54:57;8.30;;;6.30;;
42742;SDS011;28397;44.552;-0.848;2023-06-19T06:57:23;7.40;;;6.80;;
42742;SDS011;28397;44.552;-0.848;2023-06-19T06:59:49;7.30;;;6.60;;
42742;SDS011;28397;44.552;-0.848;2023-06-19T07:02:15;7.78;;;6.97;;
42742;SDS011;28397;44.552;-0.848;2023-06-19T07:04:41;8.25;;;7.07;;
42742;SDS011;28397;44.552;-0.848;2023-06-19T07:07:07;8.52;;;6.75;;
42742;SDS011;28397;44.552;-0.848;2023-06-19T07:09:33;7.65;;;6.38;;
42742;SDS011;28397;44.552;-0.848;2023-06-19T07:11:59;7.15;;;6.47;;
42742;SDS011;28397;44.552;-0.848;2023-06-19T07:14:29;7.15;;;6.55;;
42742;SDS011;28397;44.552;-0.848;2023-06-19T07:16:55;7.82;;;7.13;;
42742;SDS011;28397;44.552;-0.848;2023-06-19T07:19:20;6.95;;;6.45;;
42742;SDS011;28397;44.552;-0.848;2023-06-19T07:21:46;7.85;;;7.10;;
42742;SDS011;28397;44.552;-0.848;2023-06-19T07:24:12;7.85;;;7.18;;
42742;SDS011;28397;44.552;-0.848;2023-06-19T07:26:37;8.90;;;7.85;;
42742;SDS011;28397;44.552;-0.848;2023-06-19T07:29:03;8.13;;;7.35;;
42742;SDS011;28397;44.552;-0.848;2023-06-19T07:31:29;9.02;;;7.45;;
42742;SDS011;28397;44.552;-0.848;2023-06-19T07:33:54;8.77;;;7.78;;
42742;SDS011;28397;44.552;-0.848;2023-06-19T07:36:20;9.93;;;7.90;;
42742;SDS011;28397;44.552;-0.848;2023-06-19T07:38:46;8.43;;;7.43;;
42742;SDS011;28397;44.552;-0.848;2023-06-19T07:41:11;8.48;;;7.20;;
42742;SDS011;28397;44.552;-0.848;2023-06-19T07:43:37;8.85;;;7.95;;
42742;SDS011;28397;44.552;-0.848;2023-06-19T07:46:03;9.27;;;7.70;;
42742;SDS011;28397;44.552;-0.848;2023-06-19T07:48:29;9.48;;;8.50;;
42742;SDS011;28397;44.552;-0.848;2023-06-19T07:50:55;9.57;;;8.68;;
42742;SDS011;28397;44.552;-0.848;2023-06-19T07:53:21;8.27;;;7.47;;
42742;SDS011;28397;44.552;-0.848;2023-06-19T07:55:47;9.02;;;8.15;;
42742;SDS011;28397;44.552;-0.848;2023-06-19T07:58:12;8.65;;;7.90;;
42742;SDS011;28397;44.552;-0.848;2023-06-19T08:00:38;8.85;;;7.85;;
42742;SDS011;28397;44.552;-0.848;2023-06-19T08:03:04;9.18;;;8.30;;
42742;SDS011;28397;44.552;-0.848;2023-06-19T08:05:30;9.45;;;8.55;;
42742;SDS011;28397;44.552;-0.848;2023-06-19T08:07:56;9.25;;;8.38;;
42742;SDS011;28397;44.552;-0.848;2023-06-19T08:10:23;9.95;;;8.43;;
42742;SDS011;28397;44.552;-0.848;2023-06-19T08:12:49;8.43;;;7.63;;
42742;SDS011;28397;44.552;-0.848;2023-06-19T08:15:14;8.63;;;7.80;;
42742;SDS011;28397;44.552;-0.848;2023-06-19T08:17:40;8.63;;;7.78;;
42742;SDS011;28397;44.552;-0.848;2023-06-19T08:20:06;8.23;;;7.43;;
42742;SDS011;28397;44.552;-0.848;2023-06-19T08:22:33;8.25;;;7.63;;
42742;SDS011;28397;44.552;-0.848;2023-06-19T08:24:59;8.32;;;7.57;;
42742;SDS011;28397;44.552;-0.848;2023-06-19T08:27:25;8.52;;;7.72;;
42742;SDS011;28397;44.552;-0.848;2023-06-19T08:29:51;8.30;;;7.70;;
42742;SDS011;28397;44.552;-0.848;2023-06-19T08:32:16;7.63;;;7.03;;
42742;SDS011;28397;44.552;-0.848;2023-06-19T08:34:42;7.63;;;6.97;;
42742;SDS011;28397;44.552;-0.848;2023-06-19T08:37:08;7.85;;;7.25;;
42742;SDS011;28397;44.552;-0.848;2023-06-19T08:39:34;8.02;;;7.22;;
42742;SDS011;28397;44.552;-0.848;2023-06-19T08:42:09;8.13;;;7.40;;
42742;SDS011;28397;44.552;-0.848;2023-06-19T08:44:35;8.23;;;7.38;;
42742;SDS011;28397;44.552;-0.848;2023-06-19T08:47:01;8.27;;;7.47;;
42742;SDS011;28397;44.552;-0.848;2023-06-19T08:49:34;8.20;;;7.60;;
42742;SDS011;28397;44.552;-0.848;2023-06-19T08:52:01;8.20;;;7.50;;
42742;SDS011;28397;44.552;-0.848;2023-06-19T08:54:27;8.73;;;7.80;;
42742;SDS011;28397;44.552;-0.848;2023-06-19T08:56:53;8.20;;;7.43;;
42742;SDS011;28397;44.552;-0.848;2023-06-19T08:59:19;7.65;;;6.95;;
42742;SDS011;28397;44.552;-0.848;2023-06-19T09:01:49;7.82;;;7.13;;
42742;SDS011;28397;44.552;-0.848;2023-06-19T09:04:17;7.80;;;7.20;;
42742;SDS011;28397;44.552;-0.848;2023-06-19T09:06:51;8.25;;;7.50;;
42742;SDS011;28397;44.552;-0.848;2023-06-19T09:09:23;7.65;;;6.95;;
42742;SDS011;28397;44.552;-0.848;2023-06-19T09:14:35;7.30;;;6.45;;
42742;SDS011;28397;44.552;-0.848;2023-06-19T09:17:04;7.43;;;6.72;;
42742;SDS011;28397;44.552;-0.848;2023-06-19T09:19:32;6.90;;;6.40;;
42742;SDS011;28397;44.552;-0.848;2023-06-19T09:22:02;7.13;;;6.55;;
42742;SDS011;28397;44.552;-0.848;2023-06-19T09:29:43;6.03;;;5.60;;
42742;SDS011;28397;44.552;-0.848;2023-06-19T09:32:14;6.50;;;5.78;;
42742;SDS011;28397;44.552;-0.848;2023-06-19T09:34:47;7.82;;;5.50;;
42742;SDS011;28397;44.552;-0.848;2023-06-19T09:37:15;5.55;;;5.05;;
42742;SDS011;28397;44.552;-0.848;2023-06-19T09:40:05;5.15;;;4.75;;
42742;SDS011;28397;44.552;-0.848;2023-06-19T09:42:38;5.20;;;4.75;;
42742;SDS011;28397;44.552;-0.848;2023-06-19T09:45:11;5.43;;;4.93;;
42742;SDS011;28397;44.552;-0.848;2023-06-19T09:47:43;5.18;;;4.78;;
42742;SDS011;28397;44.552;-0.848;2023-06-19T09:50:13;5.50;;;5.00;;
42742;SDS011;28397;44.552;-0.848;2023-06-19T09:52:40;5.53;;;5.13;;
42742;SDS011;28397;44.552;-0.848;2023-06-19T09:55:07;5.50;;;5.10;;
42742;SDS011;28397;44.552;-0.848;2023-06-19T09:57:35;5.72;;;5.18;;
42742;SDS011;28397;44.552;-0.848;2023-06-19T10:00:02;5.95;;;5.50;;
42742;SDS011;28397;44.552;-0.848;2023-06-19T10:02:37;5.85;;;5.35;;
42742;SDS011;28397;44.552;-0.848;2023-06-19T10:05:07;7.18;;;5.63;;
42742;SDS011;28397;44.552;-0.848;2023-06-19T10:07:42;5.73;;;5.27;;
42742;SDS011;28397;44.552;-0.848;2023-06-19T10:10:11;5.82;;;5.32;;
42742;SDS011;28397;44.552;-0.848;2023-06-19T10:12:48;5.63;;;5.15;;
42742;SDS011;28397;44.552;-0.848;2023-06-19T10:15:17;5.45;;;5.05;;
42742;SDS011;28397;44.552;-0.848;2023-06-19T10:17:48;5.68;;;5.18;;
42742;SDS011;28397;44.552;-0.848;2023-06-19T10:20:22;4.95;;;4.65;;
42742;SDS011;28397;44.552;-0.848;2023-06-19T10:23:01;4.75;;;4.35;;
42742;SDS011;28397;44.552;-0.848;2023-06-19T10:25:28;5.30;;;4.90;;
42742;SDS011;28397;44.552;-0.848;2023-06-19T10:27:55;5.30;;;4.85;;
42742;SDS011;28397;44.552;-0.848;2023-06-19T10:30:21;5.22;;;4.72;;
42742;SDS011;28397;44.552;-0.848;2023-06-19T10:32:47;4.75;;;3.90;;
42742;SDS011;28397;44.552;-0.848;2023-06-19T10:35:14;4.30;;;4.00;;
42742;SDS011;28397;44.552;-0.848;2023-06-19T10:37:41;6.10;;;4.80;;
42742;SDS011;28397;44.552;-0.848;2023-06-19T10:40:08;5.32;;;4.50;;
42742;SDS011;28397;44.552;-0.848;2023-06-19T10:42:38;9.82;;;7.00;;
42742;SDS011;28397;44.552;-0.848;2023-06-19T10:45:06;11.60;;;9.18;;
42742;SDS011;28397;44.552;-0.848;2023-06-19T10:47:38;7.65;;;6.85;;
42742;SDS011;28397;44.552;-0.848;2023-06-19T10:50:11;8.13;;;7.30;;
42742;SDS011;28397;44.552;-0.848;2023-06-19T10:52:41;7.70;;;6.03;;
42742;SDS011;28397;44.552;-0.848;2023-06-19T10:55:11;7.57;;;6.72;;
42742;SDS011;28397;44.552;-0.848;2023-06-19T10:57:39;6.88;;;5.57;;
42742;SDS011;28397;44.552;-0.848;2023-06-19T11:02:40;5.95;;;4.80;;
42742;SDS011;28397;44.552;-0.848;2023-06-19T11:05:11;5.47;;;4.97;;
42742;SDS011;28397;44.552;-0.848;2023-06-19T11:07:37;4.90;;;4.50;;
42742;SDS011;28397;44.552;-0.848;2023-06-19T11:10:03;5.13;;;4.22;;
42742;SDS011;28397;44.552;-0.848;2023-06-19T11:12:30;4.38;;;3.80;;
42742;SDS011;28397;44.552;-0.848;2023-06-19T11:14:58;3.90;;;3.60;;
42742;SDS011;28397;44.552;-0.848;2023-06-19T11:17:23;4.13;;;3.83;;
42742;SDS011;28397;44.552;-0.848;2023-06-19T11:19:49;3.90;;;3.60;;
42742;SDS011;28397;44.552;-0.848;2023-06-19T11:22:15;4.30;;;3.80;;
42742;SDS011;28397;44.552;-0.848;2023-06-19T11:24:47;4.00;;;3.60;;
42742;SDS011;28397;44.552;-0.848;2023-06-19T11:27:17;3.88;;;3.47;;
42742;SDS011;28397;44.552;-0.848;2023-06-19T11:29:54;3.85;;;3.45;;
42742;SDS011;28397;44.552;-0.848;2023-06-19T11:32:21;3.92;;;3.60;;
42742;SDS011;28397;44.552;-0.848;2023-06-19T11:34:50;4.78;;;3.25;;
42742;SDS011;28397;44.552;-0.848;2023-06-19T11:37:19;6.00;;;3.40;;
42742;SDS011;28397;44.552;-0.848;2023-06-19T11:39:46;4.10;;;3.53;;
42742;SDS011;28397;44.552;-0.848;2023-06-19T11:42:13;3.40;;;3.10;;
42742;SDS011;28397;44.552;-0.848;2023-06-19T11:45:01;4.32;;;3.35;;
42742;SDS011;28397;44.552;-0.848;2023-06-19T11:47:31;3.17;;;2.88;;
42742;SDS011;28397;44.552;-0.848;2023-06-19T11:49:57;3.75;;;3.45;;
42742;SDS011;28397;44.552;-0.848;2023-06-19T11:52:23;3.35;;;3.05;;
42742;SDS011;28397;44.552;-0.848;2023-06-19T11:54:49;3.50;;;3.20;;
42742;SDS011;28397;44.552;-0.848;2023-06-19T11:57:14;3.10;;;2.90;;
42742;SDS011;28397;44.552;-0.848;2023-06-19T11:59:40;3.00;;;2.70;;
42742;SDS011;28397;44.552;-0.848;2023-06-19T12:02:07;3.17;;;2.72;;
42742;SDS011;28397;44.552;-0.848;2023-06-19T12:04:33;3.17;;;2.85;;
42742;SDS011;28397;44.552;-0.848;2023-06-19T12:06:59;3.38;;;2.45;;
42742;SDS011;28397;44.552;-0.848;2023-06-19T12:09:25;7.18;;;2.90;;
42742;SDS011;28397;44.552;-0.848;2023-06-19T12:11:52;3.20;;;2.90;;
42742;SDS011;28397;44.552;-0.848;2023-06-19T12:14:18;2.90;;;2.70;;
42742;SDS011;28397;44.552;-0.848;2023-06-19T12:16:47;3.13;;;2.92;;
42742;SDS011;28397;44.552;-0.848;2023-06-19T12:19:13;3.20;;;2.85;;
42742;SDS011;28397;44.552;-0.848;2023-06-19T12:21:39;3.30;;;2.85;;
42742;SDS011;28397;44.552;-0.848;2023-06-19T12:24:05;3.38;;;3.13;;
42742;SDS011;28397;44.552;-0.848;2023-06-19T12:26:31;3.28;;;2.88;;
42742;SDS011;28397;44.552;-0.848;2023-06-19T12:29:01;3.50;;;3.20;;
42742;SDS011;28397;44.552;-0.848;2023-06-19T12:31:31;3.83;;;3.20;;
42742;SDS011;28397;44.552;-0.848;2023-06-19T12:33:57;3.75;;;3.40;;
42742;SDS011;28397;44.552;-0.848;2023-06-19T12:36:24;3.00;;;2.80;;
42742;SDS011;28397;44.552;-0.848;2023-06-19T12:38:49;3.17;;;2.97;;
42742;SDS011;28397;44.552;-0.848;2023-06-19T12:41:18;3.15;;;2.88;;
42742;SDS011;28397;44.552;-0.848;2023-06-19T12:43:47;3.47;;;3.15;;
42742;SDS011;28397;44.552;-0.848;2023-06-19T12:46:13;4.43;;;2.90;;
42742;SDS011;28397;44.552;-0.848;2023-06-19T12:48:39;3.45;;;3.10;;
42742;SDS011;28397;44.552;-0.848;2023-06-19T12:51:06;3.60;;;3.30;;
42742;SDS011;28397;44.552;-0.848;2023-06-19T12:53:32;3.20;;;2.92;;
42742;SDS011;28397;44.552;-0.848;2023-06-19T12:55:58;3.60;;;3.30;;
42742;SDS011;28397;44.552;-0.848;2023-06-19T12:58:24;3.30;;;3.00;;
42742;SDS011;28397;44.552;-0.848;2023-06-19T13:00:50;3.70;;;3.40;;
42742;SDS011;28397;44.552;-0.848;2023-06-19T13:03:16;4.28;;;3.78;;
42742;SDS011;28397;44.552;-0.848;2023-06-19T13:05:41;4.95;;;3.28;;
42742;SDS011;28397;44.552;-0.848;2023-06-19T13:08:07;4.15;;;3.40;;
42742;SDS011;28397;44.552;-0.848;2023-06-19T13:10:33;4.95;;;3.20;;
42742;SDS011;28397;44.552;-0.848;2023-06-19T13:12:58;4.10;;;3.60;;
42742;SDS011;28397;44.552;-0.848;2023-06-19T13:15:24;4.18;;;3.78;;
42742;SDS011;28397;44.552;-0.848;2023-06-19T13:17:50;5.78;;;3.95;;
42742;SDS011;28397;44.552;-0.848;2023-06-19T13:20:16;4.50;;;3.90;;
42742;SDS011;28397;44.552;-0.848;2023-06-19T13:22:42;5.25;;;4.15;;
42742;SDS011;28397;44.552;-0.848;2023-06-19T13:25:08;6.13;;;4.00;;
42742;SDS011;28397;44.552;-0.848;2023-06-19T13:27:34;4.13;;;3.50;;
42742;SDS011;28397;44.552;-0.848;2023-06-19T13:30:00;4.07;;;3.70;;
42742;SDS011;28397;44.552;-0.848;2023-06-19T13:32:26;4.30;;;3.88;;
42742;SDS011;28397;44.552;-0.848;2023-06-19T13:34:52;4.68;;;3.70;;
42742;SDS011;28397;44.552;-0.848;2023-06-19T13:37:18;9.45;;;4.13;;
42742;SDS011;28397;44.552;-0.848;2023-06-19T13:39:44;6.43;;;3.92;;
42742;SDS011;28397;44.552;-0.848;2023-06-19T13:42:10;4.88;;;3.80;;
42742;SDS011;28397;44.552;-0.848;2023-06-19T13:44:37;5.57;;;3.90;;
42742;SDS011;28397;44.552;-0.848;2023-06-19T13:47:03;4.00;;;3.70;;
42742;SDS011;28397;44.552;-0.848;2023-06-19T13:49:29;4.47;;;4.07;;
42742;SDS011;28397;44.552;-0.848;2023-06-19T13:51:55;5.50;;;4.40;;
42742;SDS011;28397;44.552;-0.848;2023-06-19T13:54:21;4.93;;;4.07;;
42742;SDS011;28397;44.552;-0.848;2023-06-19T13:56:47;4.97;;;4.43;;
42742;SDS011;28397;44.552;-0.848;2023-06-19T13:59:13;4.68;;;4.15;;
42742;SDS011;28397;44.552;-0.848;2023-06-19T14:01:40;4.78;;;4.10;;
42742;SDS011;28397;44.552;-0.848;2023-06-19T14:04:06;7.22;;;4.13;;
42742;SDS011;28397;44.552;-0.848;2023-06-19T14:06:33;4.80;;;4.20;;
42742;SDS011;28397;44.552;-0.848;2023-06-19T14:08:59;4.20;;;3.90;;
42742;SDS011;28397;44.552;-0.848;2023-06-19T14:11:25;4.35;;;4.05;;
42742;SDS011;28397;44.552;-0.848;2023-06-19T14:13:51;4.65;;;4.03;;
42742;SDS011;28397;44.552;-0.848;2023-06-19T14:16:16;4.20;;;3.90;;
42742;SDS011;28397;44.552;-0.848;2023-06-19T14:18:42;5.40;;;4.65;;
42742;SDS011;28397;44.552;-0.848;2023-06-19T14:21:08;4.25;;;3.90;;
42742;SDS011;28397;44.552;-0.848;2023-06-19T14:23:33;4.40;;;3.97;;
42742;SDS011;28397;44.552;-0.848;2023-06-19T14:26:03;4.72;;;4.32;;
42742;SDS011;28397;44.552;-0.848;2023-06-19T14:28:29;4.55;;;4.15;;
42742;SDS011;28397;44.552;-0.848;2023-06-19T14:30:55;4.85;;;4.10;;
42742;SDS011;28397;44.552;-0.848;2023-06-19T14:33:20;4.53;;;3.85;;
42742;SDS011;28397;44.552;-0.848;2023-06-19T14:35:46;4.82;;;4.30;;
42742;SDS011;28397;44.552;-0.848;2023-06-19T14:38:12;6.05;;;4.20;;
42742;SDS011;28397;44.552;-0.848;2023-06-19T14:40:39;4.60;;;4.10;;
42742;SDS011;28397;44.552;-0.848;2023-06-19T14:43:05;5.63;;;4.25;;
42742;SDS011;28397;44.552;-0.848;2023-06-19T14:45:30;4.60;;;4.20;;
42742;SDS011;28397;44.552;-0.848;2023-06-19T14:47:56;6.38;;;3.88;;